Time;durP1;ratioP1;P1;durP2;ratioP2;P2;SDS_P1;SDS_P2;PMS_P1;PMS_P2;Temp;Humidity;BMP_temperature;BMP_pressure;BME280_temperature;BME280_humidity;BME280_pressure;Samples;Min_cycle;Max_cycle;Signal;HPM_P1;HPM_P2
2024/02/13 00:01:01;;;;;;;15.80;11.40;;;;;;;9.15;100.00;99209.96;86860;270;136788;-65
2024/02/13 00:03:09;;;;;;;16.50;11.30;;;;;;;9.15;100.00;99213.02;87106;271;26193;-65
2024/02/13 00:05:11;;;;;;;22.30;12.20;;;;;;;9.15;100.00;99210.70;87014;279;136582;-66
2024/02/13 00:07:13;;;;;;;16.90;12.70;;;;;;;9.19;100.00;99214.25;87091;280;25079;-66
2024/02/13 00:09:15;;;;;;;19.60;12.80;;;;;;;9.23;100.00;99221.59;87018;272;138088;-66
2024/02/13 00:11:18;;;;;;;15.90;12.60;;;;;;;9.20;100.00;99225.16;87021;271;22586;-65
2024/02/13 00:13:20;;;;;;;14.30;11.60;;;;;;;9.20;100.00;99224.76;86920;270;137089;-66
2024/02/13 00:15:22;;;;;;;14.20;10.70;;;;;;;9.21;100.00;99218.78;87087;273;22556;-65
2024/02/13 00:17:25;;;;;;;13.60;9.60;;;;;;;9.19;100.00;99215.31;87050;275;137281;-64
2024/02/13 00:19:28;;;;;;;13.30;9.80;;;;;;;9.18;100.00;99214.04;87075;267;22562;-65
2024/02/13 00:21:33;;;;;;;17.10;9.50;;;;;;;9.16;100.00;99212.16;86782;272;136806;-65
2024/02/13 00:23:36;;;;;;;14.10;10.90;;;;;;;9.14;100.00;99218.46;87185;272;24062;-65
2024/02/13 00:25:38;;;;;;;17.60;10.20;;;;;;;9.12;100.00;99220.34;87100;271;136713;-66
2024/02/13 00:27:40;;;;;;;17.00;11.30;;;;;;;9.09;100.00;99222.64;87247;266;25156;-66
2024/02/13 00:29:44;;;;;;;17.90;10.00;;;;;;;9.06;100.00;99222.92;87248;271;139490;-65
2024/02/13 00:31:46;;;;;;;12.50;9.90;;;;;;;8.98;100.00;99213.23;87428;267;23100;-65
2024/02/13 00:33:48;;;;;;;17.70;10.00;;;;;;;8.92;100.00;99206.42;86845;279;137962;-66
2024/02/13 00:35:53;;;;;;;15.40;9.80;;;;;;;8.88;100.00;99210.50;87092;266;23778;-64
2024/02/13 00:37:55;;;;;;;14.70;10.60;;;;;;;8.88;100.00;99213.94;87032;267;136477;-66
2024/02/13 00:39:57;;;;;;;17.90;9.20;;;;;;;8.91;100.00;99205.27;87040;268;24135;-65
2024/02/13 00:42:02;;;;;;;15.90;9.30;;;;;;;8.93;100.00;99203.59;87116;279;136766;-65
2024/02/13 00:44:04;;;;;;;13.20;9.00;;;;;;;8.93;100.00;99205.55;87058;271;137380;-66
2024/02/13 00:46:06;;;;;;;11.90;10.10;;;;;;;8.90;100.00;99207.02;87114;271;22529;-65
2024/02/13 00:48:08;;;;;;;12.00;8.20;;;;;;;8.88;100.00;99211.52;87109;270;137302;-67
2024/02/13 00:50:10;;;;;;;15.10;9.80;;;;;;;8.85;100.00;99213.83;87069;276;22729;-66
2024/02/13 00:52:13;;;;;;;17.30;10.90;;;;;;;8.80;100.00;99213.23;87080;274;137178;-66
2024/02/13 00:54:16;;;;;;;11.60;9.50;;;;;;;8.78;100.00;99218.15;87115;274;23545;-65
2024/02/13 00:56:18;;;;;;;15.60;9.80;;;;;;;8.69;100.00;99221.86;86877;276;137392;-64
2024/02/13 00:58:20;;;;;;;13.00;9.30;;;;;;;8.61;100.00;99217.61;87188;274;22568;-66
2024/02/13 01:00:22;;;;;;;12.90;9.20;;;;;;;8.58;100.00;99215.23;87158;271;136971;-66
2024/02/13 01:02:24;;;;;;;10.40;8.20;;;;;;;8.57;100.00;99221.81;86990;272;24139;-65
2024/02/13 01:04:26;;;;;;;13.10;8.80;;;;;;;8.56;100.00;99221.52;86932;273;137067;-66
2024/02/13 01:06:29;;;;;;;13.10;7.60;;;;;;;8.54;100.00;99213.92;87045;275;24016;-66
2024/02/13 01:08:31;;;;;;;16.20;8.30;;;;;;;8.54;100.00;99208.20;87135;267;137292;-65
2024/02/13 01:10:33;;;;;;;12.30;6.80;;;;;;;8.55;100.00;99206.27;87036;279;25210;-65
2024/02/13 01:12:35;;;;;;;13.70;8.20;;;;;;;8.57;100.00;99204.08;87094;271;137080;-68
2024/02/13 01:14:39;;;;;;;11.50;6.90;;;;;;;8.62;100.00;99200.48;87142;271;24635;-66
2024/02/13 01:16:41;;;;;;;15.10;8.30;;;;;;;8.64;100.00;99203.31;86949;271;136993;-67
2024/02/13 01:18:43;;;;;;;10.00;5.70;;;;;;;8.69;100.00;99206.34;87274;278;22744;-68
2024/02/13 01:20:44;;;;;;;8.40;6.10;;;;;;;8.72;100.00;99209.02;87127;278;137322;-65
2024/02/13 01:22:47;;;;;;;11.30;6.50;;;;;;;8.71;100.00;99214.44;87210;267;22652;-66
2024/02/13 01:24:48;;;;;;;8.40;5.10;;;;;;;8.69;100.00;99210.71;87034;271;137942;-64
2024/02/13 01:26:50;;;;;;;8.30;5.30;;;;;;;8.66;100.00;99209.77;86942;273;24112;-67
2024/02/13 01:28:52;;;;;;;9.60;5.10;;;;;;;8.66;100.00;99209.64;87121;278;136745;-65
2024/02/13 01:30:54;;;;;;;10.50;4.60;;;;;;;8.64;100.00;99210.24;88224;267;22623;-67
2024/02/13 01:32:56;;;;;;;5.30;4.10;;;;;;;8.66;100.00;99208.95;87089;267;137054;-66
2024/02/13 01:34:58;;;;;;;8.70;4.10;;;;;;;8.67;100.00;99216.95;87254;271;26313;-66
2024/02/13 01:37:00;;;;;;;5.60;4.00;;;;;;;8.66;100.00;99218.47;87135;271;137435;-66
2024/02/13 01:39:03;;;;;;;4.60;3.10;;;;;;;8.66;100.00;99216.72;87217;271;23534;-64
2024/02/13 01:41:05;;;;;;;7.60;3.90;;;;;;;8.64;100.00;99219.73;87276;274;136650;-65
2024/02/13 01:43:09;;;;;;;10.00;3.50;;;;;;;8.62;100.00;99225.94;87265;278;22541;-66
2024/02/13 01:45:12;;;;;;;11.60;4.10;;;;;;;8.61;100.00;99222.55;87046;267;137536;-65
2024/02/13 01:47:14;;;;;;;6.90;3.60;;;;;;;8.61;100.00;99220.95;87266;279;22625;-66
2024/02/13 01:49:17;;;;;;;7.90;3.80;;;;;;;8.59;100.00;99220.58;86943;278;137315;-65
2024/02/13 01:51:19;;;;;;;4.80;3.70;;;;;;;8.52;100.00;99220.52;87067;267;22959;-65
2024/02/13 01:53:24;;;;;;;7.80;3.80;;;;;;;8.53;100.00;99222.54;87020;271;138072;-66
2024/02/13 01:55:29;;;;;;;8.00;3.50;;;;;;;8.49;100.00;99221.59;87401;267;22588;-66
2024/02/13 01:57:36;;;;;;;4.80;2.60;;;;;;;8.48;100.00;99219.83;87118;279;137443;-65
2024/02/13 01:59:38;;;;;;;6.60;3.20;;;;;;;8.47;100.00;99224.83;87255;268;25178;-65
2024/02/13 02:01:42;;;;;;;13.70;3.60;;;;;;;8.47;100.00;99220.86;87202;267;136838;-67
2024/02/13 02:03:45;;;;;;;8.20;3.40;;;;;;;8.45;100.00;99220.49;87193;279;25223;-64
2024/02/13 02:05:46;;;;;;;5.70;2.90;;;;;;;8.45;100.00;99224.08;87069;271;136801;-64
2024/02/13 02:07:49;;;;;;;6.10;3.20;;;;;;;8.47;100.00;99227.02;86907;279;25245;-65
2024/02/13 02:09:52;;;;;;;9.50;3.80;;;;;;;8.42;100.00;99230.80;87088;274;137658;-65
2024/02/13 02:11:53;;;;;;;5.10;3.50;;;;;;;8.45;100.00;99233.88;87178;274;22583;-65
2024/02/13 02:13:57;;;;;;;6.40;2.50;;;;;;;8.39;100.00;99229.43;87333;267;136537;-66
2024/02/13 02:15:59;;;;;;;15.70;4.10;;;;;;;8.37;100.00;99228.41;87397;271;25146;-65
2024/02/13 02:18:01;;;;;;;9.50;4.80;;;;;;;8.38;100.00;99227.80;87021;278;136648;-66
2024/02/13 02:20:03;;;;;;;9.00;3.40;;;;;;;8.34;100.00;99224.44;87219;274;137086;-66
2024/02/13 02:22:07;;;;;;;5.40;2.60;;;;;;;8.34;100.00;99223.66;87240;279;22579;-66
2024/02/13 02:24:08;;;;;;;4.90;3.40;;;;;;;8.30;100.00;99226.58;86990;271;137148;-65
2024/02/13 02:26:11;;;;;;;4.90;2.70;;;;;;;8.26;100.00;99225.97;87059;271;22554;-65
2024/02/13 02:28:15;;;;;;;11.50;4.50;;;;;;;8.21;100.00;99223.63;87178;271;136790;-65
2024/02/13 02:30:17;;;;;;;5.00;2.90;;;;;;;8.24;100.00;99226.81;87175;267;22641;-65
2024/02/13 02:32:21;;;;;;;4.80;3.50;;;;;;;8.15;100.00;99228.50;87079;271;137063;-64
2024/02/13 02:34:24;;;;;;;7.70;4.30;;;;;;;8.07;100.00;99229.05;87361;274;25131;-65
2024/02/13 02:36:25;;;;;;;7.40;2.60;;;;;;;8.03;100.00;99229.50;87090;277;136557;-65
2024/02/13 02:38:27;;;;;;;8.60;4.00;;;;;;;8.00;100.00;99227.98;87181;270;24119;-65
2024/02/13 02:40:29;;;;;;;5.90;3.30;;;;;;;7.96;100.00;99231.92;87174;263;137884;-65
2024/02/13 02:42:31;;;;;;;7.30;4.00;;;;;;;7.90;100.00;99228.17;87312;278;25284;-65
2024/02/13 02:44:35;;;;;;;9.40;3.80;;;;;;;7.89;100.00;99228.14;87251;269;136920;-65
2024/02/13 02:46:38;;;;;;;6.70;3.40;;;;;;;7.85;100.00;99229.59;87315;279;23997;-64
2024/02/13 02:48:41;;;;;;;5.60;3.60;;;;;;;7.82;100.00;99237.14;87013;271;138082;-65
2024/02/13 02:50:43;;;;;;;8.00;3.80;;;;;;;7.79;100.00;99237.16;87690;275;25124;-67
2024/02/13 02:52:46;;;;;;;10.50;3.60;;;;;;;7.78;100.00;99241.23;87090;271;136763;-64
2024/02/13 02:54:48;;;;;;;10.10;3.50;;;;;;;7.76;100.00;99243.78;87169;271;22539;-66
2024/02/13 02:56:49;;;;;;;7.30;4.50;;;;;;;7.72;100.00;99238.19;87037;275;137185;-67
2024/02/13 02:58:51;;;;;;;6.90;4.40;;;;;;;7.70;100.00;99232.73;87088;271;25115;-66
2024/02/13 03:00:53;;;;;;;4.50;2.80;;;;;;;7.67;100.00;99233.10;87042;271;137881;-66
2024/02/13 03:02:55;;;;;;;8.30;3.90;;;;;;;7.66;100.00;99233.27;87013;272;25175;-64
2024/02/13 03:04:58;;;;;;;6.90;4.10;;;;;;;7.60;100.00;99228.95;87365;270;136781;-67
2024/02/13 03:07:00;;;;;;;7.10;4.40;;;;;;;7.57;100.00;99231.86;87263;269;22648;-66
2024/02/13 03:09:02;;;;;;;4.30;3.60;;;;;;;7.54;100.00;99243.14;87178;269;138324;-66
2024/02/13 03:11:04;;;;;;;12.20;4.70;;;;;;;7.49;100.00;99248.25;87392;266;25097;-66
2024/02/13 03:13:06;;;;;;;8.30;4.20;;;;;;;7.44;100.00;99254.91;87198;271;138449;-65
2024/02/13 03:15:08;;;;;;;4.40;2.70;;;;;;;7.41;100.00;99256.31;87242;265;22548;-64
2024/02/13 03:17:11;;;;;;;10.40;4.10;;;;;;;7.38;100.00;99254.26;87228;271;136879;-65
2024/02/13 03:19:13;;;;;;;10.00;4.10;;;;;;;7.36;100.00;99253.84;87244;271;22801;-65
2024/02/13 03:21:17;;;;;;;4.70;3.70;;;;;;;7.37;100.00;99255.85;87094;270;137076;-64
2024/02/13 03:23:18;;;;;;;6.80;3.60;;;;;;;7.35;100.00;99257.42;87222;266;24036;-64
2024/02/13 03:25:22;;;;;;;8.90;3.40;;;;;;;7.34;100.00;99262.72;87160;267;136887;-66
2024/02/13 03:27:23;;;;;;;9.20;4.40;;;;;;;7.34;100.00;99258.27;87338;276;22575;-65
2024/02/13 03:29:25;;;;;;;9.20;3.90;;;;;;;7.34;100.00;99255.66;87186;269;136601;-64
2024/02/13 03:31:28;;;;;;;11.80;4.50;;;;;;;7.38;100.00;99255.62;87318;273;24648;-65
2024/02/13 03:33:30;;;;;;;10.10;3.50;;;;;;;7.40;100.00;99250.48;87297;263;137080;-64
2024/02/13 03:35:34;;;;;;;13.50;4.00;;;;;;;7.43;100.00;99246.17;87279;271;22801;-66
2024/02/13 03:37:36;;;;;;;7.50;4.10;;;;;;;7.42;100.00;99246.01;87223;269;136900;-67
2024/02/13 03:39:42;;;;;;;7.90;4.50;;;;;;;7.38;100.00;99253.53;87241;277;25179;-65
2024/02/13 03:41:48;;;;;;;7.90;3.50;;;;;;;7.38;100.00;99258.13;87011;271;137681;-64
2024/02/13 03:43:50;;;;;;;6.10;4.00;;;;;;;7.36;100.00;99262.29;90117;262;22549;-64
2024/02/13 03:45:53;;;;;;;13.10;4.20;;;;;;;7.33;100.00;99260.59;87175;271;137999;-64
2024/02/13 03:47:55;;;;;;;6.30;4.80;;;;;;;7.28;100.00;99266.30;87139;276;22628;-64
2024/02/13 03:49:57;;;;;;;7.90;4.10;;;;;;;7.25;100.00;99273.01;86924;272;137785;-65
2024/02/13 03:51:59;;;;;;;8.20;5.00;;;;;;;7.20;100.00;99277.09;87041;268;24503;-70
2024/02/13 03:54:01;;;;;;;7.40;4.50;;;;;;;7.20;100.00;99279.41;87091;270;136502;-66
2024/02/13 03:56:06;;;;;;;5.90;4.40;;;;;;;7.18;100.00;99280.14;87366;270;137389;-67
2024/02/13 03:58:08;;;;;;;8.40;5.70;;;;;;;7.20;100.00;99280.19;87249;280;22498;-65
2024/02/13 04:00:11;;;;;;;7.90;5.50;;;;;;;7.18;100.00;99277.73;87080;275;136907;-65
2024/02/13 04:02:14;;;;;;;7.80;4.90;;;;;;;7.17;100.00;99281.92;87273;278;22597;-66
2024/02/13 04:04:16;;;;;;;10.10;5.50;;;;;;;7.16;100.00;99285.83;87149;274;136969;-67
2024/02/13 04:06:18;;;;;;;7.20;4.40;;;;;;;7.13;100.00;99289.35;87130;272;22559;-66
2024/02/13 04:08:20;;;;;;;7.20;4.90;;;;;;;7.10;100.00;99295.52;87000;271;137210;-65
2024/02/13 04:10:23;;;;;;;7.90;4.20;;;;;;;7.06;100.00;99297.94;87193;271;25297;-65
2024/02/13 04:12:25;;;;;;;11.30;4.40;;;;;;;7.03;100.00;99296.61;87139;278;136894;-65
2024/02/13 04:14:27;;;;;;;8.30;4.90;;;;;;;7.02;100.00;99301.28;87268;274;25079;-66
2024/02/13 04:16:30;;;;;;;7.20;4.00;;;;;;;7.01;100.00;99299.52;87189;269;136745;-65
2024/02/13 04:18:35;;;;;;;13.90;4.70;;;;;;;6.98;100.00;99297.67;87235;271;25303;-64
2024/02/13 04:20:38;;;;;;;7.70;4.50;;;;;;;6.99;100.00;99295.52;86956;272;137878;-64
2024/02/13 04:22:40;;;;;;;6.50;4.30;;;;;;;6.99;100.00;99295.31;87243;275;24922;-64
2024/02/13 04:24:44;;;;;;;9.80;4.90;;;;;;;6.98;100.00;99298.36;87120;270;136651;-65
2024/02/13 04:26:46;;;;;;;10.10;4.30;;;;;;;6.98;100.00;99301.38;87242;274;24315;-65
2024/02/13 04:28:48;;;;;;;7.10;4.40;;;;;;;6.96;100.00;99298.91;87205;270;137104;-66
2024/02/13 04:30:52;;;;;;;7.60;4.70;;;;;;;6.96;100.00;99303.52;87041;271;22518;-67
2024/02/13 04:32:55;;;;;;;12.90;4.80;;;;;;;6.88;100.00;99304.22;87109;271;136787;-67
2024/02/13 04:34:57;;;;;;;7.90;4.40;;;;;;;6.80;100.00;99302.36;87236;271;22575;-66
2024/02/13 04:37:00;;;;;;;10.70;5.70;;;;;;;6.78;100.00;99304.06;87144;271;136776;-64
2024/02/13 04:39:02;;;;;;;13.10;5.20;;;;;;;6.81;100.00;99309.56;87204;267;22571;-66
2024/02/13 04:41:05;;;;;;;8.60;4.40;;;;;;;6.86;100.00;99312.34;87205;272;136743;-66
2024/02/13 04:43:07;;;;;;;12.10;4.30;;;;;;;6.89;100.00;99313.69;87147;269;22580;-65
2024/02/13 04:45:09;;;;;;;8.10;4.90;;;;;;;6.88;100.00;99313.63;87167;267;138131;-64
2024/02/13 04:47:10;;;;;;;7.20;4.40;;;;;;;6.91;100.00;99317.16;87201;271;25136;-65
2024/02/13 04:49:13;;;;;;;10.70;4.80;;;;;;;6.90;100.00;99323.31;87081;263;136683;-65
2024/02/13 04:51:15;;;;;;;14.60;5.90;;;;;;;6.94;100.00;99326.89;87039;272;24004;-66
2024/02/13 04:53:21;;;;;;;10.80;4.80;;;;;;;6.96;100.00;99333.52;87061;267;137092;-65
2024/02/13 04:55:24;;;;;;;6.00;4.50;;;;;;;6.93;100.00;99335.40;87209;271;25124;-69
2024/02/13 04:57:27;;;;;;;9.10;4.50;;;;;;;6.93;100.00;99330.55;87060;264;136884;-64
2024/02/13 04:59:37;;;;;;;8.70;4.90;;;;;;;6.94;100.00;99324.97;87271;275;24007;-67
2024/02/13 05:01:43;;;;;;;13.20;5.80;;;;;;;6.96;100.00;99329.37;86973;276;136428;-64
2024/02/13 05:08:11;;;;;;;8.30;4.60;;;;;;;6.95;100.00;99340.02;87065;271;137074;-65
2024/02/13 05:10:13;;;;;;;9.70;5.90;;;;;;;6.92;100.00;99347.50;87186;279;24150;-64
2024/02/13 05:12:15;;;;;;;9.50;5.00;;;;;;;6.89;100.00;99353.59;87017;271;136749;-65
2024/02/13 05:14:17;;;;;;;10.80;5.60;;;;;;;6.88;100.00;99353.00;87201;266;22585;-66
2024/02/13 05:16:19;;;;;;;10.40;5.90;;;;;;;6.88;100.00;99354.80;87051;270;137359;-65
2024/02/13 05:18:21;;;;;;;8.80;5.70;;;;;;;6.89;100.00;99358.40;87348;264;23774;-66
2024/02/13 05:20:23;;;;;;;7.60;4.40;;;;;;;6.88;100.00;99364.17;86980;268;136658;-66
2024/02/13 05:22:26;;;;;;;12.80;5.20;;;;;;;6.79;100.00;99367.30;87189;275;23011;-63
2024/02/13 05:24:28;;;;;;;10.60;5.80;;;;;;;6.77;100.00;99369.55;86972;278;136952;-63
2024/02/13 05:26:30;;;;;;;11.10;5.30;;;;;;;6.74;100.00;99374.01;87108;271;24238;-65
2024/02/13 05:28:32;;;;;;;6.60;5.00;;;;;;;6.67;100.00;99376.08;87340;267;136756;-69
2024/02/13 05:30:36;;;;;;;14.60;5.90;;;;;;;6.63;100.00;99376.20;87848;279;23144;-67
2024/02/13 05:32:38;;;;;;;6.70;6.00;;;;;;;6.59;100.00;99375.92;87127;289;137383;-68
2024/02/13 05:34:39;;;;;;;9.00;5.50;;;;;;;6.66;100.00;99378.31;87175;267;23461;-66
2024/02/13 05:36:43;;;;;;;10.30;5.30;;;;;;;6.70;100.00;99382.23;86301;270;862684;-69
2024/02/13 05:38:49;;;;;;;8.40;5.90;;;;;;;6.71;100.00;99387.21;87266;267;22562;-68
2024/02/13 05:40:51;;;;;;;12.10;7.60;;;;;;;6.71;100.00;99391.89;87095;269;136824;-68
2024/02/13 05:42:54;;;;;;;8.30;5.40;;;;;;;6.72;100.00;99392.73;87138;275;22645;-67
2024/02/13 05:44:57;;;;;;;11.00;5.80;;;;;;;6.72;100.00;99396.39;87003;271;136580;-68
2024/02/13 05:46:58;;;;;;;12.10;5.60;;;;;;;6.66;100.00;99394.69;87081;279;22566;-68
2024/02/13 05:49:00;;;;;;;8.10;5.50;;;;;;;6.66;100.00;99397.74;86848;268;136485;-71
2024/02/13 05:51:09;;;;;;;9.80;5.40;;;;;;;6.66;100.00;99394.57;87040;268;25119;-66
2024/02/13 05:53:10;;;;;;;10.90;5.10;;;;;;;6.68;100.00;99395.52;86922;275;137225;-68
2024/02/13 05:55:13;;;;;;;8.70;4.70;;;;;;;6.71;100.00;99399.39;87545;269;24027;-64
2024/02/13 05:57:17;;;;;;;9.60;4.90;;;;;;;6.77;100.00;99399.34;86869;278;136827;-64
2024/02/13 05:59:25;;;;;;;8.20;4.80;;;;;;;6.82;100.00;99400.70;90031;267;22390;-64
2024/02/13 06:01:27;;;;;;;12.00;5.60;;;;;;;6.85;100.00;99402.52;89017;269;137924;-63
2024/02/13 06:03:32;;;;;;;10.80;6.00;;;;;;;6.83;100.00;99404.13;86972;272;22563;-63
2024/02/13 06:05:35;;;;;;;10.80;5.90;;;;;;;6.81;100.00;99408.69;87121;267;137232;-64
2024/02/13 06:07:41;;;;;;;10.60;5.60;;;;;;;6.80;100.00;99407.62;87246;266;22584;-63
2024/02/13 06:09:42;;;;;;;11.10;5.70;;;;;;;6.80;100.00;99411.89;87107;278;137080;-63
2024/02/13 06:11:45;;;;;;;10.30;6.40;;;;;;;6.80;100.00;99411.93;87140;271;22573;-63
2024/02/13 06:13:49;;;;;;;11.30;5.90;;;;;;;6.80;100.00;99419.10;87092;267;137346;-64
2024/02/13 06:15:52;;;;;;;16.00;6.10;;;;;;;6.84;100.00;99417.39;87218;271;27572;-62
2024/02/13 06:17:54;;;;;;;9.30;5.30;;;;;;;6.93;100.00;99415.86;87236;274;137847;-63
2024/02/13 06:20:02;;;;;;;8.90;5.00;;;;;;;7.06;100.00;99414.94;87074;280;25114;-65
2024/02/13 06:22:03;;;;;;;11.20;5.20;;;;;;;7.16;100.00;99418.46;87015;271;22567;-63
2024/02/13 06:24:05;;;;;;;15.40;5.60;;;;;;;7.23;100.00;99416.21;86787;268;136404;-64
2024/02/13 06:26:08;;;;;;;11.40;5.80;;;;;;;7.28;100.00;99420.73;87259;271;25223;-63
2024/02/13 06:28:10;;;;;;;10.80;4.70;;;;;;;7.33;100.00;99421.93;86796;269;136744;-63
2024/02/13 06:30:12;;;;;;;11.60;6.40;;;;;;;7.36;100.00;99421.80;87067;275;22671;-62
2024/02/13 06:32:14;;;;;;;9.40;4.90;;;;;;;7.39;100.00;99423.30;86922;271;138007;-62
2024/02/13 06:34:19;;;;;;;6.70;4.60;;;;;;;7.47;100.00;99422.80;87103;271;22651;-64
2024/02/13 06:36:21;;;;;;;7.50;5.00;;;;;;;7.52;100.00;99420.92;87259;278;136824;-65
2024/02/13 06:38:24;;;;;;;10.80;5.60;;;;;;;7.59;100.00;99422.20;87070;278;22578;-71
2024/02/13 06:40:26;;;;;;;9.20;5.40;;;;;;;7.68;100.00;99430.19;87378;271;137207;-74
2024/02/13 06:42:28;;;;;;;12.30;5.70;;;;;;;7.73;100.00;99430.72;87371;276;25189;-78
2024/02/13 06:44:31;;;;;;;10.40;5.70;;;;;;;7.79;100.00;99431.87;86853;280;137834;-77
2024/02/13 06:46:33;;;;;;;10.70;5.80;;;;;;;7.87;100.00;99430.05;87096;279;22563;-70
2024/02/13 06:48:35;;;;;;;6.70;5.10;;;;;;;7.90;100.00;99432.82;86679;272;138866;-69
2024/02/13 06:50:37;;;;;;;6.90;5.20;;;;;;;7.94;100.00;99438.52;86846;268;22555;-70
2024/02/13 06:52:40;;;;;;;12.40;5.30;;;;;;;7.95;100.00;99445.79;87133;272;136559;-77
2024/02/13 06:54:43;;;;;;;12.40;5.70;;;;;;;7.98;100.00;99441.81;88125;271;22877;-77
2024/02/13 06:56:48;;;;;;;7.80;4.50;;;;;;;8.01;100.00;99439.92;87069;272;137112;-78
2024/02/13 06:58:50;;;;;;;14.50;5.90;;;;;;;8.03;100.00;99435.73;87749;280;22574;-76
2024/02/13 07:00:52;;;;;;;9.30;5.90;;;;;;;8.04;100.00;99438.95;86923;271;136949;-79
2024/02/13 07:02:54;;;;;;;9.70;6.00;;;;;;;8.08;100.00;99441.55;87623;279;24754;-73
2024/02/13 07:04:56;;;;;;;10.50;5.20;;;;;;;8.13;100.00;99439.71;87032;267;137052;-75
2024/02/13 07:07:01;;;;;;;10.00;4.80;;;;;;;8.18;100.00;99438.55;86958;271;24010;-72
2024/02/13 07:09:20;;;;;;;11.60;5.80;;;;;;;8.27;100.00;99434.74;87084;271;137291;-73
2024/02/13 07:11:22;;;;;;;9.10;5.60;;;;;;;8.36;100.00;99435.27;87163;271;22571;-72
2024/02/13 07:13:24;;;;;;;11.30;5.40;;;;;;;8.45;100.00;99436.90;86945;272;136017;-74
2024/02/13 07:15:25;;;;;;;18.20;6.00;;;;;;;8.49;100.00;99439.77;87099;271;22670;-73
2024/02/13 07:17:28;;;;;;;7.60;5.20;;;;;;;8.52;100.00;99441.19;87043;279;136379;-75
2024/02/13 07:19:34;;;;;;;9.40;5.80;;;;;;;8.57;100.00;99439.61;87122;278;24820;-73
2024/02/13 07:21:36;;;;;;;10.00;6.30;;;;;;;8.60;100.00;99438.67;87128;266;136831;-75
2024/02/13 07:23:38;;;;;;;9.30;5.00;;;;;;;8.57;100.00;99444.89;87212;270;22555;-72
2024/02/13 07:25:40;;;;;;;6.30;5.70;;;;;;;8.52;100.00;99444.46;87077;278;136774;-75
2024/02/13 07:27:42;;;;;;;11.60;7.20;;;;;;;8.53;100.00;99443.42;87269;271;22895;-73
2024/02/13 07:29:44;;;;;;;10.80;6.90;;;;;;;8.57;100.00;99442.95;87081;270;138157;-70
2024/02/13 07:31:47;;;;;;;9.70;6.10;;;;;;;8.64;100.00;99444.71;87233;273;24038;-71
2024/02/13 07:33:48;;;;;;;9.00;5.10;;;;;;;8.69;100.00;99443.05;87062;269;138296;-72
2024/02/13 07:35:51;;;;;;;9.00;5.30;;;;;;;8.74;100.00;99446.80;87458;278;25328;-76
2024/02/13 07:37:54;;;;;;;11.30;6.10;;;;;;;8.78;100.00;99449.52;87302;270;136418;-72
2024/02/13 07:39:56;;;;;;;16.90;5.90;;;;;;;8.83;100.00;99449.61;87246;271;22595;-74
2024/02/13 07:41:57;;;;;;;8.20;4.90;;;;;;;8.91;100.00;99452.06;87631;267;136735;-71
2024/02/13 07:43:59;;;;;;;12.30;6.10;;;;;;;9.00;100.00;99452.02;87187;266;23326;-74
2024/02/13 07:46:03;;;;;;;12.50;7.70;;;;;;;9.06;100.00;99452.72;87471;271;137163;-74
2024/02/13 07:48:06;;;;;;;12.40;7.40;;;;;;;9.11;100.00;99453.94;87564;268;137807;-76
2024/02/13 07:50:09;;;;;;;10.00;6.50;;;;;;;9.12;100.00;99453.14;86945;275;23826;-72
2024/02/13 07:52:12;;;;;;;16.50;7.90;;;;;;;9.11;100.00;99452.25;87124;271;136772;-72
2024/02/13 07:54:14;;;;;;;12.80;6.10;;;;;;;9.12;100.00;99453.55;87752;267;23436;-78
2024/02/13 07:56:19;;;;;;;10.40;5.90;;;;;;;9.15;100.00;99454.80;87604;274;136919;-78
2024/02/13 07:58:20;;;;;;;12.90;6.10;;;;;;;9.16;100.00;99457.30;87548;271;23765;-76
2024/02/13 08:00:26;;;;;;;12.00;6.30;;;;;;;9.13;100.00;99458.71;87517;270;137068;-76
2024/02/13 08:02:28;;;;;;;11.40;5.90;;;;;;;9.14;100.00;99463.25;87657;280;22584;-72
2024/02/13 08:04:31;;;;;;;7.50;5.00;;;;;;;9.20;100.00;99460.53;87503;272;138098;-72
2024/02/13 08:06:34;;;;;;;11.20;6.60;;;;;;;9.25;100.00;99466.27;86823;280;22522;-72
2024/02/13 08:08:37;;;;;;;11.90;5.90;;;;;;;9.26;100.00;99467.41;87525;273;136546;-74
2024/02/13 08:10:39;;;;;;;12.80;6.80;;;;;;;9.29;100.00;99468.40;87616;274;25206;-69
2024/02/13 08:12:41;;;;;;;14.10;7.60;;;;;;;9.30;100.00;99473.27;87304;270;138022;-70
2024/02/13 08:14:43;;;;;;;12.70;5.80;;;;;;;9.25;100.00;99478.35;87073;271;22580;-68
2024/02/13 08:16:45;;;;;;;10.60;7.40;;;;;;;9.22;100.00;99485.58;87081;271;136864;-72
2024/02/13 08:18:50;;;;;;;11.70;6.70;;;;;;;9.19;100.00;99487.11;87660;278;22575;-72
2024/02/13 08:20:52;;;;;;;9.30;6.10;;;;;;;9.20;100.00;99486.26;87506;279;136726;-69
2024/02/13 08:22:54;;;;;;;12.20;7.30;;;;;;;9.25;100.00;99484.71;87283;271;22725;-70
2024/02/13 08:25:00;;;;;;;10.00;6.40;;;;;;;9.29;100.00;99488.79;87695;274;137537;-70
2024/02/13 08:27:05;;;;;;;10.30;6.20;;;;;;;9.28;100.00;99490.17;87495;272;25220;-72
2024/02/13 08:29:09;;;;;;;13.40;5.60;;;;;;;9.25;100.00;99496.91;87314;271;136928;-70
2024/02/13 08:31:11;;;;;;;15.30;7.50;;;;;;;9.23;100.00;99490.31;87622;269;22560;-71
2024/02/13 08:33:12;;;;;;;8.80;7.10;;;;;;;9.20;100.00;99490.71;87045;273;136191;-70
2024/02/13 08:35:15;;;;;;;11.30;7.00;;;;;;;9.17;100.00;99497.13;87639;270;22539;-69
2024/02/13 08:37:17;;;;;;;11.70;6.80;;;;;;;9.13;100.00;99497.89;87269;271;136863;-67
2024/02/13 08:39:20;;;;;;;12.40;6.30;;;;;;;9.15;100.00;99501.17;86935;271;22687;-65
2024/02/13 08:41:23;;;;;;;11.00;7.50;;;;;;;9.20;100.00;99505.04;87489;272;137306;-64
2024/02/13 08:43:25;;;;;;;13.10;6.30;;;;;;;9.28;100.00;99500.56;86980;272;25143;-68
2024/02/13 08:45:28;;;;;;;12.90;6.90;;;;;;;9.32;100.00;99500.58;86916;269;136833;-70
2024/02/13 08:47:30;;;;;;;15.10;6.80;;;;;;;9.34;100.00;99496.41;87111;275;24145;-66
2024/02/13 08:49:32;;;;;;;12.00;7.70;;;;;;;9.37;100.00;99498.24;86972;271;137059;-72
2024/02/13 08:51:34;;;;;;;10.20;6.50;;;;;;;9.39;100.00;99502.56;87736;266;25092;-74
2024/02/13 08:53:39;;;;;;;10.50;6.60;;;;;;;9.43;100.00;99507.52;87203;271;136883;-65
2024/02/13 08:55:42;;;;;;;14.50;6.60;;;;;;;9.50;100.00;99510.52;87312;271;24026;-68
2024/02/13 08:57:46;;;;;;;11.70;6.50;;;;;;;9.59;100.00;99510.34;86869;271;137767;-66
2024/02/13 08:59:49;;;;;;;8.60;6.10;;;;;;;9.67;100.00;99510.34;87173;271;24015;-69
2024/02/13 09:01:54;;;;;;;14.90;7.20;;;;;;;9.68;100.00;99506.42;87152;271;135421;-67
2024/02/13 09:03:56;;;;;;;8.90;6.60;;;;;;;9.65;100.00;99506.20;87245;278;22582;-66
2024/02/13 09:06:00;;;;;;;13.00;6.50;;;;;;;9.70;100.00;99497.29;86799;271;135970;-66
2024/02/13 09:08:03;;;;;;;12.30;7.00;;;;;;;9.75;100.00;99496.02;87134;274;137801;-68
2024/02/13 09:10:06;;;;;;;13.40;7.30;;;;;;;9.82;100.00;99496.48;87168;268;22587;-69
2024/02/13 09:12:08;;;;;;;10.60;7.00;;;;;;;9.90;100.00;99496.89;87053;267;137477;-68
2024/02/13 09:14:11;;;;;;;12.20;7.90;;;;;;;9.97;100.00;99505.04;87215;278;24286;-69
2024/02/13 09:16:13;;;;;;;15.50;8.10;;;;;;;9.96;100.00;99503.95;87083;275;139270;-68
2024/02/13 09:18:15;;;;;;;9.60;6.50;;;;;;;9.91;100.00;99505.05;87122;278;23349;-68
2024/02/13 09:20:21;;;;;;;10.20;6.80;;;;;;;9.85;100.00;99504.46;87048;270;137350;-66
2024/02/13 09:22:26;;;;;;;10.50;6.50;;;;;;;9.76;100.00;99506.05;87275;271;26125;-77
2024/02/13 09:24:28;;;;;;;12.60;6.60;;;;;;;9.70;100.00;99506.91;87329;273;137782;-76
2024/02/13 09:26:30;;;;;;;9.60;5.40;;;;;;;9.68;100.00;99507.80;87652;275;22621;-75
2024/02/13 09:28:32;;;;;;;13.30;5.40;;;;;;;9.68;100.00;99503.51;87551;274;137460;-75
2024/02/13 09:30:34;;;;;;;13.70;7.70;;;;;;;9.69;100.00;99511.69;87607;278;22589;-73
2024/02/13 09:32:37;;;;;;;15.80;7.10;;;;;;;9.65;100.00;99507.69;87567;269;136907;-75
2024/02/13 09:34:39;;;;;;;10.80;7.30;;;;;;;9.62;100.00;99505.64;87922;266;28515;-80
2024/02/13 09:39:14;;;;;;;14.20;10.50;;;;;;;9.17;100.00;99509.20;85284;300;602649;-74
2024/02/13 09:41:17;;;;;;;12.30;8.60;;;;;;;9.15;100.00;99509.40;86525;289;135809;-77
2024/02/13 09:43:19;;;;;;;14.10;8.80;;;;;;;9.18;100.00;99504.91;86311;290;22587;-74